Data for 06/16/2005

Time Sea-Level Adjusted Pressure Absolute Pressure Temperature Relative Humidity Dew Point   
(mb) (inHg) (mb) (inHg) (C) (F) (%) (C) (F)
00:05 1016 30 845 24.95 16.1 60.9 72 11 51.7
00:10 1016 30 845 24.95 16 60.8 71 10.9 51.6
00:15 1016 30 845 24.95 16 60.8 72 10.9 51.6
00:20 1016 30 845 24.95 15.9 60.6 72 10.9 51.6
00:25 1016 30 845 24.95 15.8 60.4 72 10.9 51.6
00:30 1016 30 845 24.95 15.8 60.5 72 10.9 51.5
00:35 1016 30 845 24.95 15.8 60.4 73 10.9 51.7
00:40 1016 30 845 24.95 15.7 60.3 73 10.9 51.6
00:45 1016 30 845 24.95 15.7 60.3 73 10.8 51.5
00:50 1016 30 845 24.95 15.6 60.2 73 10.8 51.5
00:55 1016 30 845 24.95 15.5 59.9 73 10.8 51.5
01:00 1016 30 845 24.95 15.5 59.9 74 10.8 51.5
01:05 1016 30 845 24.95 15.4 59.7 74 10.8 51.4
01:10 1016 30 845 24.95 15.4 59.7 74 10.9 51.5
01:15 1016 30 845 24.95 15.3 59.6 74 10.8 51.5
01:20 1016 30 845 24.95 15.2 59.4 75 10.8 51.5
01:25 1016 30 845 24.95 15.1 59.2 75 10.8 51.4
01:30 1016 30 845 24.95 15.1 59.2 75 10.8 51.5
01:35 1016 30 845 24.95 15.1 59.2 76 10.9 51.6
01:40 1016 30 845 24.95 15.1 59.1 75 10.8 51.4
01:45 1016 30 845 24.95 15.1 59.1 75 10.8 51.4
01:50 1016 30 845 24.95 15 59.1 76 10.8 51.4
01:55 1016 30 845 24.95 14.9 58.8 76 10.8 51.4
02:00 1016 30 845 24.95 14.9 58.8 76 10.7 51.3
02:05 1016 30 845 24.95 14.9 58.8 76 10.8 51.4
02:10 1016 30 845 24.95 14.8 58.6 77 10.8 51.4
02:15 1016 30 845 24.95 14.8 58.6 77 10.8 51.4
02:20 1016 30 845 24.95 14.8 58.6 76 10.7 51.3
02:25 1016 30 845 24.95 14.7 58.5 77 10.8 51.4
02:30 1016 30 845 24.95 14.7 58.5 77 10.7 51.3
02:35 1016 30 845 24.95 14.8 58.6 76 10.7 51.2
02:40 1016 30 845 24.95 14.8 58.6 77 10.7 51.3
02:45 1016 30 845 24.95 14.7 58.4 77 10.8 51.5
02:50 1016 30 845 24.95 14.5 58.1 78 10.8 51.4
02:55 1016 30 845 24.95 14.4 57.9 78 10.7 51.3
03:00 1016 30 845 24.95 14.4 57.9 79 10.8 51.4
03:05 1016 30 845 24.95 14.3 57.8 79 10.7 51.3
03:10 1016 30 845 24.95 14.3 57.8 79 10.8 51.4
03:15 1016 30 845 24.95 14.3 57.7 79 10.8 51.4
03:20 1016 30 845 24.95 14.2 57.5 79 10.7 51.3
03:25 1016 30 845 24.95 14.2 57.6 79 10.7 51.3
03:30 1016 30 845 24.95 14.2 57.6 80 10.8 51.4
03:35 1016 30 845 24.95 14.2 57.5 80 10.8 51.5
03:40 1016 30 845 24.95 14.1 57.4 80 10.8 51.5
03:45 1016 30 845 24.95 14.1 57.4 81 10.8 51.5
03:50 1016 30 845 24.95 14 57.2 81 10.8 51.4
03:55 1016 30 845 24.95 13.9 57 81 10.8 51.4
04:00 1016 30 845 24.95 13.7 56.7 82 10.7 51.2
04:05 1016 30 845 24.95 13.7 56.6 82 10.7 51.2
04:10 1016 30 845 24.95 13 55.4 83 10.2 50.3
04:15 1016 30 845 24.95 12.4 54.3 85 9.9 49.9
04:20 1016 30 845 24.95 12.2 53.9 86 9.9 49.8
04:25 1016 30 845 24.95 12 53.7 84 9.5 49
04:30 1016 30 845 24.95 11.9 53.5 84 9.3 48.7
04:35 1016 30 845 24.95 11.8 53.2 82 8.8 47.9
04:40 1016 30 845 24.95 11.7 53 79 8.2 46.7
04:45 1016 30 845 24.95 11.2 52.2 76 7.2 45
04:50 1016 30 845 24.95 11 51.8 77 7.1 44.7
04:55 1016 30 845 24.95 11 51.9 77 7.2 44.9
05:00 1016 30 845 24.95 11.4 52.5 78 7.8 46
05:05 1016 30 845 24.95 11.6 52.9 79 8.2 46.7
05:10 1016 30 845 24.95 11.6 52.8 79 8 46.4
05:15 1016 30 845 24.95 11.7 53.1 78 8 46.5
05:20 1016 30 845 24.95 11.7 53.1 80 8.3 47
05:25 1016 30 845 24.95 11.4 52.6 81 8.3 46.9
05:30 1016 30 845 24.95 11.3 52.3 80 8 46.5
05:35 1016 30 845 24.95 11.3 52.4 78 7.7 45.8
05:40 1016 30 845 24.95 11.4 52.5 78 7.8 46
05:45 1016 30 846 24.98 11.5 52.7 79 8 46.5
05:50 1016 30 846 24.98 11.5 52.7 80 8.2 46.8
05:55 1016 30 846 24.98 11.2 52.1 81 8 46.5
06:00 1016 30 846 24.98 10.9 51.5 82 7.9 46.2
06:05 1016 30 845 24.95 11 51.7 80 7.7 45.8
06:10 1016 30 845 24.95 11.2 52.1 81 8.1 46.5
06:15 1016 30 845 24.95 11.6 52.8 83 8.8 47.9
06:20 1016 30 846 24.98 12.1 53.8 84 9.6 49.2
06:25 1016 30 846 24.98 12.6 54.7 83 9.9 49.8
06:30 1016 30 846 24.98 12.9 55.2 81 9.8 49.7
06:35 1016 30 846 24.98 12.9 55.1 78 9.2 48.5
06:40 1016 30 846 24.98 12.6 54.7 79 9.1 48.3
06:45 1016 30 846 24.98 12.6 54.7 78 8.9 48
06:50 1016 30 846 24.98 12.6 54.7 79 9 48.3
06:55 1016 30 846 24.98 12.7 54.8 83 10 49.9
07:00 1016 30 846 24.98 13.1 55.6 84 10.5 50.8
07:05 1016 30 846 24.98 13.4 56.2 83 10.7 51.2
07:10 1016 30 846 24.98 13.7 56.6 82 10.7 51.3
07:15 1016 30 846 24.98 13.7 56.6 82 10.7 51.2
07:20 1016 30 846 24.98 13.8 56.8 82 10.8 51.4
07:25 1016 30 846 24.98 13.7 56.7 81 10.5 50.9
07:30 1016 30 846 24.98 13.7 56.6 80 10.3 50.5
07:35 1016 30 846 24.98 13.8 56.8 75 9.5 49.1
07:40 1016 30 846 24.98 14 57.1 74 9.5 49.1
07:45 1016 30 846 24.98 14.2 57.5 73 9.5 49
07:50 1016 30 845 24.95 14.9 58.8 75 10.5 51
07:55 1016 30 845 24.95 15.6 60 73 10.8 51.4
08:00 1016 30 845 24.95 15.8 60.5 72 10.8 51.4
08:05 1016 30 845 24.95 16 60.8 71 10.8 51.5
08:10 1016 30 845 24.95 16.2 61.1 70 10.7 51.2
08:15 1016 30 845 24.95 16.4 61.5 70 10.9 51.7
08:20 1016 30 845 24.95 16.5 61.7 69 11 51.8
08:25 1016 30 845 24.95 16.7 62.1 67 10.5 51
08:30 1016 30 845 24.95 17.3 63.1 66 10.8 51.5
08:35 1016 30 845 24.95 17.7 63.8 63 10.6 51.1
08:40 1016 30 845 24.95 17.4 63.3 63 10.4 50.7
08:45 1016 30 845 24.95 17.4 63.4 63 10.3 50.5
08:50 1016 30 845 24.95 17.6 63.6 63 10.4 50.8
08:55 1016 30 845 24.95 17.9 64.2 60 10.2 50.3
09:00 1016 30 845 24.95 18.1 64.7 61 10.5 51
09:05 1016 30 845 24.95 18.5 65.3 58 10.1 50.2
09:10 1016 30 845 24.95 18.6 65.6 59 10.5 51
09:15 1016 30 845 24.95 18.3 65 62 11 51.9
09:20 1016 30 845 24.95 18.5 65.3 56 9.7 49.4
09:25 1016 30 845 24.95 18.2 64.7 65 11.6 52.9
09:30 1016 30 845 24.95 17.9 64.1 65 11.3 52.3
09:35 1016 30 845 24.95 18.5 65.3 61 10.9 51.6
09:40 1016 30 845 24.95 19 66.2 61 11.4 52.6
09:45 1016 30 845 24.95 18.8 65.8 60 10.9 51.7
09:50 1015 29.97 845 24.95 18.7 65.7 61 11 51.9
09:55 1015 29.97 845 24.95 19.6 67.2 59 11.3 52.4
10:00 1015 29.97 844 24.92 18.7 65.7 62 11.3 52.4
10:05 1015 29.97 844 24.92 18.7 65.7 61 11.2 52.2
10:10 1015 29.97 844 24.92 18.6 65.5 61 11.2 52.1
10:15 1015 29.97 844 24.92 19 66.2 61 11.4 52.5
10:20 1015 29.97 844 24.92 19.2 66.5 59 11.1 52
10:25 1015 29.97 844 24.92 19.3 66.7 58 10.9 51.5
10:30 1015 29.97 844 24.92 19.1 66.4 63 11.9 53.5
10:35 1015 29.97 844 24.92 18.9 65.9 63 11.7 53
10:40 1015 29.97 844 24.92 18.8 65.9 63 11.8 53.3
10:45 1015 29.97 844 24.92 19.6 67.2 59 11.4 52.6
10:50 1015 29.97 844 24.92 19.9 67.8 58 11.5 52.7
10:55 1015 29.97 844 24.92 20.2 68.3 57 11.6 52.9
11:00 1014 29.94 844 24.92 20.9 69.6 54 11.5 52.7
11:05 1014 29.94 843 24.89 21.4 70.5 53 11.4 52.6
11:10 1014 29.94 843 24.89 20.9 69.7 50 10.4 50.6
11:15 1014 29.94 843 24.89 21.3 70.4 46 9.2 48.6
11:20 1014 29.94 843 24.89 21.7 71.1 45 9.4 48.9
11:25 1014 29.94 843 24.89 21.7 71 45 9.3 48.8
11:30 1014 29.94 843 24.89 21.9 71.4 46 10 50.1
11:35 1014 29.94 843 24.89 22.2 72 45 9.7 49.5
11:40 1014 29.94 843 24.89 22.3 72.2 46 10.3 50.6
11:45 1014 29.94 843 24.89 22 71.6 45 9.7 49.5
11:50 1014 29.94 843 24.89 22.5 72.5 45 10.1 50.2
11:55 1014 29.94 843 24.89 22.9 73.2 42 9.5 49.1
12:00 1014 29.94 843 24.89 22.8 73 41 8.9 48.1
12:05 1014 29.94 844 24.92 23.3 73.9 49 12.2 54
12:10 1015 29.97 844 24.92 22.6 72.6 56 13.5 56.3
12:15 1015 29.97 844 24.92 20.9 69.6 60 12.9 55.2
12:20 1015 29.97 844 24.92 20.3 68.5 60 12.4 54.3
12:25 1015 29.97 844 24.92 20.1 68.1 62 12.6 54.7
12:30 1015 29.97 844 24.92 19.8 67.6 64 12.9 55.2
12:35 1015 29.97 844 24.92 19.4 67 68 13.4 56.2
12:40 1015 29.97 844 24.92 18.8 65.8 75 14.4 57.9
12:45 1016 30 845 24.95 17.8 64.1 78 14 57.2
12:50 1015 29.97 844 24.92 17.3 63.1 80 13.8 56.9
12:55 1015 29.97 844 24.92 17 62.7 81 13.8 56.9
13:00 1015 29.97 844 24.92 17.3 63.1 80 13.8 56.8
13:05 1015 29.97 844 24.92 18 64.5 74 13.5 56.3
13:10 1015 29.97 844 24.92 18.4 65 74 13.7 56.6
13:15 1015 29.97 844 24.92 18.3 64.9 73 13.4 56.1
13:20 1015 29.97 844 24.92 18.1 64.6 71 12.8 55
13:25 1015 29.97 845 24.95 18.4 65 68 12.3 54.2
13:30 1015 29.97 844 24.92 17.9 64.2 72 12.8 55
13:35 1014 29.94 844 24.92 17.2 62.9 73 12.4 54.2
13:40 1014 29.94 844 24.92 17.2 63 74 12.6 54.7
13:45 1014 29.94 844 24.92 17.6 63.7 67 11.4 52.6
13:50 1014 29.94 844 24.92 18.7 65.7 63 11.6 52.9
13:55 1014 29.94 844 24.92 19.2 66.6 64 12.3 54.1
14:00 1014 29.94 844 24.92 19.5 67 58 11.1 51.9
14:05 1014 29.94 843 24.89 19.6 67.3 55 10.3 50.6
14:10 1014 29.94 843 24.89 20 68.1 53 10.3 50.5
14:15 1014 29.94 843 24.89 21.2 70.1 51 10.7 51.3
14:20 1014 29.94 843 24.89 21.2 70.1 50 10.6 51.1
14:25 1013 29.91 843 24.89 20.9 69.6 54 11.4 52.5
14:30 1013 29.91 842 24.86 20.6 69 54 11.1 52.1
14:35 1013 29.91 842 24.86 20.9 69.7 53 11.1 52
14:40 1013 29.91 842 24.86 21.7 71 51 11.1 52
14:45 1013 29.91 842 24.86 22.2 72 52 12 53.6
14:50 1013 29.91 842 24.86 22.1 71.8 52 12 53.5
14:55 1012 29.88 842 24.86 21.6 70.9 55 12.4 54.4
15:00 1012 29.88 842 24.86 21.6 70.9 55 12.3 54.2
15:05 1012 29.88 842 24.86 21.8 71.2 56 12.8 55
15:10 1012 29.88 841 24.83 21.8 71.2 55 12.5 54.5
15:15 1012 29.88 841 24.83 22.3 72.1 55 12.9 55.1
15:20 1012 29.88 841 24.83 22.9 73.2 51 12.4 54.3
15:25 1012 29.88 841 24.83 22.8 73.1 50 12.2 53.9
15:30 1012 29.88 841 24.83 22.5 72.4 55 13 55.4
15:35 1012 29.88 841 24.83 22.1 71.8 55 12.7 54.8
15:40 1012 29.88 841 24.83 22 71.6 53 12.2 54
15:45 1012 29.88 841 24.83 21.8 71.2 53 11.9 53.4
15:50 1012 29.88 841 24.83 21.7 71 53 11.8 53.3
15:55 1012 29.88 841 24.83 21.5 70.8 54 12 53.5
16:00 1012 29.88 841 24.83 21 69.8 57 12.2 53.9
16:05 1012 29.88 841 24.83 20.7 69.2 58 12.2 54
16:10 1012 29.88 841 24.83 20.6 69.2 58 12.1 53.8
16:15 1012 29.88 841 24.83 20.6 69.1 58 12.3 54.1
16:20 1012 29.88 841 24.83 20.6 69.1 56 11.5 52.7
16:25 1012 29.88 841 24.83 20.7 69.3 54 11.3 52.4
16:30 1012 29.88 841 24.83 21.1 69.9 56 12 53.6
16:35 1011 29.85 841 24.83 20.7 69.3 59 12.5 54.6
16:40 1011 29.85 841 24.83 20.5 68.9 57 11.7 53.1
16:45 1011 29.85 841 24.83 20.6 69.1 58 12 53.7
16:50 1011 29.85 840 24.81 20.7 69.2 56 11.8 53.2
16:55 1011 29.85 840 24.81 20.7 69.2 55 11.5 52.7
17:00 1011 29.85 840 24.81 20.6 69.2 56 11.8 53.2
17:05 1011 29.85 840 24.81 20.6 69 54 11.1 52
17:10 1010 29.83 840 24.81 20.6 69 52 10.5 51
17:15 1011 29.85 840 24.81 20.4 68.8 53 10.6 51.1
17:20 1011 29.85 840 24.81 20.4 68.6 51 10.1 50.1
17:25 1011 29.85 840 24.81 20.1 68.2 50 9.6 49.3
17:30 1011 29.85 840 24.81 20.4 68.7 47 8.7 47.7
17:35 1011 29.85 840 24.81 20.6 69.1 47 9.1 48.3
17:40 1011 29.85 840 24.81 20.3 68.6 51 9.9 49.7
17:45 1011 29.85 840 24.81 20.2 68.3 52 10.2 50.4
17:50 1011 29.85 840 24.81 20.2 68.3 55 11 51.7
17:55 1011 29.85 840 24.81 20.2 68.4 57 11.6 52.9
18:00 1011 29.85 840 24.81 20.2 68.4 59 12.1 53.7
18:05 1011 29.85 840 24.81 20.1 68.2 60 12.1 53.8
18:10 1011 29.85 840 24.81 20.1 68.2 59 12.1 53.7
18:15 1010 29.83 840 24.81 20.3 68.6 58 11.9 53.5
18:20 1011 29.85 840 24.81 20.4 68.6 58 11.8 53.3
18:25 1010 29.83 840 24.81 20.4 68.7 58 12 53.6
18:30 1010 29.83 839 24.78 20.5 68.8 60 12.5 54.5
18:35 1010 29.83 839 24.78 20.3 68.5 59 12.2 53.9
18:40 1010 29.83 839 24.78 20.1 68.1 58 11.6 52.9
18:45 1010 29.83 840 24.81 20 68 57 11.4 52.5
18:50 1011 29.85 840 24.81 19.8 67.7 59 11.7 53.1
18:55 1010 29.83 840 24.81 19.7 67.5 58 11.3 52.3
19:00 1010 29.83 840 24.81 19.8 67.6 57 11.1 51.9
19:05 1010 29.83 840 24.81 19.9 67.7 55 10.7 51.3
19:10 1010 29.83 840 24.81 19.8 67.7 55 10.6 51.1
19:15 1011 29.85 840 24.81 19.8 67.6 54 10.5 50.9
19:20 1010 29.83 840 24.81 20 68.1 51 9.7 49.5
19:25 1011 29.85 840 24.81 20.4 68.7 50 9.9 49.8
19:30 1010 29.83 840 24.81 20.7 69.3 47 9.3 48.7
19:35 1010 29.83 839 24.78 20.6 69.1 49 9.7 49.5
19:40 1010 29.83 839 24.78 20.5 68.8 49 9.5 49.2
19:45 1010 29.83 839 24.78 20.3 68.5 47 8.7 47.7
19:50 1010 29.83 839 24.78 20.4 68.7 47 8.9 48
19:55 1010 29.83 839 24.78 20.1 68.2 49 9.1 48.4
20:00 1010 29.83 839 24.78 20.1 68.1 46 8.3 47
20:05 1010 29.83 839 24.78 20.5 68.8 41 6.9 44.5
20:10 1010 29.83 839 24.78 21 69.7 42 7.8 46.1
20:15 1010 29.83 839 24.78 20.5 68.9 49 9.6 49.3
20:20 1010 29.83 839 24.78 19.8 67.7 50 9.3 48.7
20:25 1010 29.83 839 24.78 19.9 67.9 48 8.6 47.5
20:30 1009 29.8 839 24.78 20.2 68.3 42 7 44.5
20:35 1010 29.83 839 24.78 20.6 69 45 8.2 46.8
20:40 1010 29.83 839 24.78 20.3 68.5 46 8.6 47.5
20:45 1010 29.83 839 24.78 19.9 67.8 48 8.8 47.9
20:50 1010 29.83 839 24.78 19.6 67.3 50 9 48.3
20:55 1010 29.83 839 24.78 19.5 67 50 8.9 48
21:00 1010 29.83 839 24.78 19.3 66.7 50 8.8 47.8
21:05 1010 29.83 839 24.78 19.2 66.5 51 8.8 47.9
21:10 1010 29.83 839 24.78 19.1 66.4 51 8.8 47.8
21:15 1009 29.8 839 24.78 19.1 66.3 51 8.7 47.7
21:20 1009 29.8 839 24.78 19 66.2 48 7.8 46.1
21:25 1009 29.8 838 24.75 19.2 66.6 49 8.3 47
21:30 1009 29.8 838 24.75 19 66.2 50 8.6 47.4
21:35 1009 29.8 838 24.75 18.8 65.8 51 8.5 47.3
21:40 1009 29.8 839 24.78 18.6 65.4 52 8.7 47.6
21:45 1009 29.8 839 24.78 18.2 64.7 55 9.1 48.3
21:50 1010 29.83 839 24.78 17.8 64.1 56 9 48.2
21:55 1010 29.83 839 24.78 17.6 63.6 58 9.2 48.6
22:00 1010 29.83 839 24.78 17.3 63.1 58 9.2 48.5
22:05 1010 29.83 839 24.78 17.3 63.1 58 8.9 48
22:10 1010 29.83 839 24.78 17.5 63.6 55 8.4 47.2
22:15 1010 29.83 839 24.78 17.8 64 54 8.5 47.4
22:20 1010 29.83 839 24.78 17.8 64 54 8.5 47.4
22:25 1010 29.83 839 24.78 17.7 63.9 55 8.7 47.6
22:30 1010 29.83 839 24.78 17.6 63.7 56 8.9 48
22:35 1010 29.83 839 24.78 17.6 63.6 56 8.7 47.7
22:40 1010 29.83 839 24.78 17.5 63.5 55 8.6 47.5
22:45 1010 29.83 839 24.78 17.6 63.7 55 8.5 47.2
22:50 1010 29.83 839 24.78 17.8 64 53 8.2 46.7
22:55 1010 29.83 839 24.78 17.9 64.2 52 8.1 46.5
23:00 1010 29.83 839 24.78 17.9 64.1 52 8 46.4
23:05 1012 29.88 841 24.83 17.9 64.3 55 8.8 47.8
23:10 1013 29.91 842 24.86 17.8 64 55 8.7 47.6
23:15 1012 29.88 842 24.86 17.7 63.8 54 8.5 47.3
23:20 1012 29.88 841 24.83 17.4 63.2 55 8.3 46.9
23:25 1012 29.88 841 24.83 17 62.6 61 9.6 49.2
23:30 1012 29.88 841 24.83 15.7 60.3 72 10.7 51.3
23:35 1012 29.88 841 24.83 14.9 58.7 71 9.7 49.4
23:40 1010 29.83 840 24.81 14.8 58.6 69 9.2 48.6
23:45 1010 29.83 840 24.81 14.7 58.4 79 11.1 52
23:50 1011 29.85 840 24.81 14.4 57.8 79 10.9 51.6
23:55 1011 29.85 840 24.81 13.9 57.1 79 10.3 50.5
24:00 1011 29.85 840 24.81 13.9 57.1 79 10.4 50.6